sensor_id;sensor_type;location;lat;lon;timestamp;temperature;humidity
15543;DHT22;7873;52.230;12.856;2023-07-13T00:00:34;27.10;43.40
15543;DHT22;7873;52.230;12.856;2023-07-13T00:03:02;27.10;43.60
15543;DHT22;7873;52.230;12.856;2023-07-13T00:05:30;27.20;43.70
15543;DHT22;7873;52.230;12.856;2023-07-13T00:07:57;27.30;43.40
15543;DHT22;7873;52.230;12.856;2023-07-13T00:10:24;27.30;43.40
15543;DHT22;7873;52.230;12.856;2023-07-13T00:12:51;27.20;43.60
15543;DHT22;7873;52.230;12.856;2023-07-13T00:15:21;27.10;43.90
15543;DHT22;7873;52.230;12.856;2023-07-13T00:17:49;27.20;43.40
15543;DHT22;7873;52.230;12.856;2023-07-13T00:20:18;27.20;43.70
15543;DHT22;7873;52.230;12.856;2023-07-13T00:22:46;27.20;43.60
15543;DHT22;7873;52.230;12.856;2023-07-13T00:25:13;27.10;43.50
15543;DHT22;7873;52.230;12.856;2023-07-13T00:27:41;27.20;43.70
15543;DHT22;7873;52.230;12.856;2023-07-13T00:30:08;27.10;43.70
15543;DHT22;7873;52.230;12.856;2023-07-13T00:32:35;27.20;43.50
15543;DHT22;7873;52.230;12.856;2023-07-13T00:35:04;27.10;43.50
15543;DHT22;7873;52.230;12.856;2023-07-13T00:37:32;27.00;43.60
15543;DHT22;7873;52.230;12.856;2023-07-13T00:40:01;27.00;43.80
15543;DHT22;7873;52.230;12.856;2023-07-13T00:42:28;26.90;43.90
15543;DHT22;7873;52.230;12.856;2023-07-13T00:45:02;26.90;43.90
15543;DHT22;7873;52.230;12.856;2023-07-13T00:47:30;26.90;43.90
15543;DHT22;7873;52.230;12.856;2023-07-13T00:49:57;26.90;43.90
15543;DHT22;7873;52.230;12.856;2023-07-13T00:52:24;26.80;43.90
15543;DHT22;7873;52.230;12.856;2023-07-13T00:54:52;26.90;43.90
15543;DHT22;7873;52.230;12.856;2023-07-13T00:57:19;26.90;43.90
15543;DHT22;7873;52.230;12.856;2023-07-13T00:59:49;26.80;43.90
15543;DHT22;7873;52.230;12.856;2023-07-13T01:02:18;26.80;43.70
15543;DHT22;7873;52.230;12.856;2023-07-13T01:04:46;26.80;43.80
15543;DHT22;7873;52.230;12.856;2023-07-13T01:07:13;26.80;43.80
15543;DHT22;7873;52.230;12.856;2023-07-13T01:09:40;26.80;43.80
15543;DHT22;7873;52.230;12.856;2023-07-13T01:12:09;26.80;43.90
15543;DHT22;7873;52.230;12.856;2023-07-13T01:14:35;26.80;44.00
15543;DHT22;7873;52.230;12.856;2023-07-13T01:17:02;26.80;43.90
15543;DHT22;7873;52.230;12.856;2023-07-13T01:19:33;26.80;43.90
15543;DHT22;7873;52.230;12.856;2023-07-13T01:22:04;26.70;44.00
15543;DHT22;7873;52.230;12.856;2023-07-13T01:24:34;26.70;44.00
15543;DHT22;7873;52.230;12.856;2023-07-13T01:27:02;26.70;43.90
15543;DHT22;7873;52.230;12.856;2023-07-13T01:29:31;26.70;44.00
15543;DHT22;7873;52.230;12.856;2023-07-13T01:31:59;26.70;43.90
15543;DHT22;7873;52.230;12.856;2023-07-13T01:34:26;26.70;43.90
15543;DHT22;7873;52.230;12.856;2023-07-13T01:36:53;26.70;44.60
15543;DHT22;7873;52.230;12.856;2023-07-13T01:39:21;26.70;43.90
15543;DHT22;7873;52.230;12.856;2023-07-13T01:41:49;26.70;43.90
15543;DHT22;7873;52.230;12.856;2023-07-13T01:44:15;26.70;43.90
15543;DHT22;7873;52.230;12.856;2023-07-13T01:46:42;26.70;43.90
15543;DHT22;7873;52.230;12.856;2023-07-13T01:49:09;26.70;44.00
15543;DHT22;7873;52.230;12.856;2023-07-13T01:51:35;26.60;43.80
15543;DHT22;7873;52.230;12.856;2023-07-13T01:54:02;26.60;43.90
15543;DHT22;7873;52.230;12.856;2023-07-13T01:56:30;26.60;44.60
15543;DHT22;7873;52.230;12.856;2023-07-13T01:58:57;26.60;44.00
15543;DHT22;7873;52.230;12.856;2023-07-13T02:01:23;26.60;43.90
15543;DHT22;7873;52.230;12.856;2023-07-13T02:03:50;26.60;43.90
15543;DHT22;7873;52.230;12.856;2023-07-13T02:06:17;26.60;43.90
15543;DHT22;7873;52.230;12.856;2023-07-13T02:08:43;26.60;44.00
15543;DHT22;7873;52.230;12.856;2023-07-13T02:11:10;26.60;44.00
15543;DHT22;7873;52.230;12.856;2023-07-13T02:13:39;26.60;43.90
15543;DHT22;7873;52.230;12.856;2023-07-13T02:16:06;26.50;43.90
15543;DHT22;7873;52.230;12.856;2023-07-13T02:18:32;26.50;43.80
15543;DHT22;7873;52.230;12.856;2023-07-13T02:20:59;26.60;43.80
15543;DHT22;7873;52.230;12.856;2023-07-13T02:23:26;26.50;43.80
15543;DHT22;7873;52.230;12.856;2023-07-13T02:25:54;26.50;43.80
15543;DHT22;7873;52.230;12.856;2023-07-13T02:28:21;26.50;43.90
15543;DHT22;7873;52.230;12.856;2023-07-13T02:30:50;26.40;43.90
15543;DHT22;7873;52.230;12.856;2023-07-13T02:33:17;26.40;43.90
15543;DHT22;7873;52.230;12.856;2023-07-13T02:35:43;26.40;43.90
15543;DHT22;7873;52.230;12.856;2023-07-13T02:38:10;26.40;44.00
15543;DHT22;7873;52.230;12.856;2023-07-13T02:40:37;26.40;44.00
15543;DHT22;7873;52.230;12.856;2023-07-13T02:43:04;26.40;43.80
15543;DHT22;7873;52.230;12.856;2023-07-13T02:45:30;26.30;44.00
15543;DHT22;7873;52.230;12.856;2023-07-13T02:47:58;26.30;44.00
15543;DHT22;7873;52.230;12.856;2023-07-13T02:50:25;26.30;44.00
15543;DHT22;7873;52.230;12.856;2023-07-13T02:52:51;26.40;44.10
15543;DHT22;7873;52.230;12.856;2023-07-13T02:55:18;25.90;43.20
15543;DHT22;7873;52.230;12.856;2023-07-13T02:57:45;25.50;43.00
15543;DHT22;7873;52.230;12.856;2023-07-13T03:00:12;25.20;43.50
15543;DHT22;7873;52.230;12.856;2023-07-13T03:02:38;25.00;44.00
15543;DHT22;7873;52.230;12.856;2023-07-13T03:05:07;25.00;44.50
15543;DHT22;7873;52.230;12.856;2023-07-13T03:07:35;25.00;44.30
15543;DHT22;7873;52.230;12.856;2023-07-13T03:10:02;25.00;44.30
15543;DHT22;7873;52.230;12.856;2023-07-13T03:12:29;25.00;44.20
15543;DHT22;7873;52.230;12.856;2023-07-13T03:14:56;25.00;44.20
15543;DHT22;7873;52.230;12.856;2023-07-13T03:17:23;24.90;44.10
15543;DHT22;7873;52.230;12.856;2023-07-13T03:19:50;24.90;44.00
15543;DHT22;7873;52.230;12.856;2023-07-13T03:22:18;25.00;44.00
15543;DHT22;7873;52.230;12.856;2023-07-13T03:24:45;24.90;44.10
15543;DHT22;7873;52.230;12.856;2023-07-13T03:27:11;24.90;44.10
15543;DHT22;7873;52.230;12.856;2023-07-13T03:29:38;24.90;44.10
15543;DHT22;7873;52.230;12.856;2023-07-13T03:32:05;24.80;44.40
15543;DHT22;7873;52.230;12.856;2023-07-13T03:34:32;24.70;44.30
15543;DHT22;7873;52.230;12.856;2023-07-13T03:36:59;24.70;44.40
15543;DHT22;7873;52.230;12.856;2023-07-13T03:39:27;24.50;44.90
15543;DHT22;7873;52.230;12.856;2023-07-13T03:41:54;24.30;45.50
15543;DHT22;7873;52.230;12.856;2023-07-13T03:44:21;24.10;46.10
15543;DHT22;7873;52.230;12.856;2023-07-13T03:46:47;24.40;45.50
15543;DHT22;7873;52.230;12.856;2023-07-13T03:49:14;24.60;45.90
15543;DHT22;7873;52.230;12.856;2023-07-13T03:51:41;24.90;44.40
15543;DHT22;7873;52.230;12.856;2023-07-13T03:54:07;25.00;44.00
15543;DHT22;7873;52.230;12.856;2023-07-13T03:56:36;25.10;43.80
15543;DHT22;7873;52.230;12.856;2023-07-13T03:59:02;25.20;43.60
15543;DHT22;7873;52.230;12.856;2023-07-13T04:01:29;25.20;43.60
15543;DHT22;7873;52.230;12.856;2023-07-13T04:03:56;25.10;43.60
15543;DHT22;7873;52.230;12.856;2023-07-13T04:06:26;24.90;44.20
15543;DHT22;7873;52.230;12.856;2023-07-13T04:08:54;24.60;45.30
15543;DHT22;7873;52.230;12.856;2023-07-13T04:11:24;24.50;46.10
15543;DHT22;7873;52.230;12.856;2023-07-13T04:13:55;24.30;45.70
15543;DHT22;7873;52.230;12.856;2023-07-13T04:16:22;24.30;46.10
15543;DHT22;7873;52.230;12.856;2023-07-13T04:18:49;24.20;46.40
15543;DHT22;7873;52.230;12.856;2023-07-13T04:21:20;24.20;46.40
15543;DHT22;7873;52.230;12.856;2023-07-13T04:23:47;24.20;46.60
15543;DHT22;7873;52.230;12.856;2023-07-13T04:26:13;24.10;46.70
15543;DHT22;7873;52.230;12.856;2023-07-13T04:28:40;24.10;46.90
15543;DHT22;7873;52.230;12.856;2023-07-13T04:31:08;24.20;46.90
15543;DHT22;7873;52.230;12.856;2023-07-13T04:33:35;24.10;47.10
15543;DHT22;7873;52.230;12.856;2023-07-13T04:36:01;24.10;47.30
15543;DHT22;7873;52.230;12.856;2023-07-13T04:38:28;24.10;47.40
15543;DHT22;7873;52.230;12.856;2023-07-13T04:40:57;24.10;47.60
15543;DHT22;7873;52.230;12.856;2023-07-13T04:43:25;24.10;47.60
15543;DHT22;7873;52.230;12.856;2023-07-13T04:45:52;24.20;47.50
15543;DHT22;7873;52.230;12.856;2023-07-13T04:48:20;24.30;47.60
15543;DHT22;7873;52.230;12.856;2023-07-13T04:50:47;24.30;47.70
15543;DHT22;7873;52.230;12.856;2023-07-13T04:53:20;24.20;47.90
15543;DHT22;7873;52.230;12.856;2023-07-13T04:55:47;24.20;48.00
15543;DHT22;7873;52.230;12.856;2023-07-13T04:58:13;24.30;47.90
15543;DHT22;7873;52.230;12.856;2023-07-13T05:00:40;24.50;47.90
15543;DHT22;7873;52.230;12.856;2023-07-13T05:03:07;24.60;47.40
15543;DHT22;7873;52.230;12.856;2023-07-13T05:05:34;24.70;47.10
15543;DHT22;7873;52.230;12.856;2023-07-13T05:08:00;24.80;47.20
15543;DHT22;7873;52.230;12.856;2023-07-13T05:10:28;24.70;47.10
15543;DHT22;7873;52.230;12.856;2023-07-13T05:12:55;24.90;46.90
15543;DHT22;7873;52.230;12.856;2023-07-13T05:15:21;25.00;46.60
15543;DHT22;7873;52.230;12.856;2023-07-13T05:17:49;25.00;46.60
15543;DHT22;7873;52.230;12.856;2023-07-13T05:20:16;25.00;46.50
15543;DHT22;7873;52.230;12.856;2023-07-13T05:22:46;25.00;46.70
15543;DHT22;7873;52.230;12.856;2023-07-13T05:25:13;25.00;46.90
15543;DHT22;7873;52.230;12.856;2023-07-13T05:27:40;25.00;46.80
15543;DHT22;7873;52.230;12.856;2023-07-13T05:30:07;25.00;46.70
15543;DHT22;7873;52.230;12.856;2023-07-13T05:32:36;25.00;46.70
15543;DHT22;7873;52.230;12.856;2023-07-13T05:35:03;25.00;46.70
15543;DHT22;7873;52.230;12.856;2023-07-13T05:37:30;25.00;46.60
15543;DHT22;7873;52.230;12.856;2023-07-13T05:39:58;25.00;46.60
15543;DHT22;7873;52.230;12.856;2023-07-13T05:42:25;25.00;46.60
15543;DHT22;7873;52.230;12.856;2023-07-13T05:44:51;25.00;46.60
15543;DHT22;7873;52.230;12.856;2023-07-13T05:47:18;25.00;46.60
15543;DHT22;7873;52.230;12.856;2023-07-13T05:49:45;25.00;46.70
15543;DHT22;7873;52.230;12.856;2023-07-13T05:52:12;25.00;46.70
15543;DHT22;7873;52.230;12.856;2023-07-13T05:54:38;25.00;46.80
15543;DHT22;7873;52.230;12.856;2023-07-13T05:57:06;25.00;47.60
15543;DHT22;7873;52.230;12.856;2023-07-13T05:59:33;25.00;46.70
15543;DHT22;7873;52.230;12.856;2023-07-13T06:02:00;25.00;46.70
15543;DHT22;7873;52.230;12.856;2023-07-13T06:04:26;25.00;46.70
15543;DHT22;7873;52.230;12.856;2023-07-13T06:06:53;25.00;46.60
15543;DHT22;7873;52.230;12.856;2023-07-13T06:09:20;25.10;46.60
15543;DHT22;7873;52.230;12.856;2023-07-13T06:11:46;25.10;46.60
15543;DHT22;7873;52.230;12.856;2023-07-13T06:14:14;25.10;46.40
15543;DHT22;7873;52.230;12.856;2023-07-13T06:16:41;25.10;46.40
15543;DHT22;7873;52.230;12.856;2023-07-13T06:19:08;25.10;46.40
15543;DHT22;7873;52.230;12.856;2023-07-13T06:21:34;25.10;46.40
15543;DHT22;7873;52.230;12.856;2023-07-13T06:24:01;25.10;46.30
15543;DHT22;7873;52.230;12.856;2023-07-13T06:26:28;25.20;46.30
15543;DHT22;7873;52.230;12.856;2023-07-13T06:28:55;25.20;46.10
15543;DHT22;7873;52.230;12.856;2023-07-13T06:31:23;25.20;46.10
15543;DHT22;7873;52.230;12.856;2023-07-13T06:33:50;25.20;46.00
15543;DHT22;7873;52.230;12.856;2023-07-13T06:36:16;25.30;46.10
15543;DHT22;7873;52.230;12.856;2023-07-13T06:38:43;25.30;46.00
15543;DHT22;7873;52.230;12.856;2023-07-13T06:41:10;25.30;46.10
15543;DHT22;7873;52.230;12.856;2023-07-13T06:43:36;25.20;46.10
15543;DHT22;7873;52.230;12.856;2023-07-13T06:46:03;25.20;46.20
15543;DHT22;7873;52.230;12.856;2023-07-13T06:48:31;25.20;46.30
15543;DHT22;7873;52.230;12.856;2023-07-13T06:50:58;25.30;46.20
15543;DHT22;7873;52.230;12.856;2023-07-13T06:53:25;25.30;46.00
15543;DHT22;7873;52.230;12.856;2023-07-13T06:55:51;25.30;46.00
15543;DHT22;7873;52.230;12.856;2023-07-13T06:58:18;25.40;46.00
15543;DHT22;7873;52.230;12.856;2023-07-13T07:00:46;25.40;46.00
15543;DHT22;7873;52.230;12.856;2023-07-13T07:03:16;25.40;45.90
15543;DHT22;7873;52.230;12.856;2023-07-13T07:05:44;25.50;45.90
15543;DHT22;7873;52.230;12.856;2023-07-13T07:08:11;25.40;46.70
15543;DHT22;7873;52.230;12.856;2023-07-13T07:10:38;25.40;45.90
15543;DHT22;7873;52.230;12.856;2023-07-13T07:13:04;25.50;45.90
15543;DHT22;7873;52.230;12.856;2023-07-13T07:15:31;25.40;45.90
15543;DHT22;7873;52.230;12.856;2023-07-13T07:17:58;25.50;46.00
15543;DHT22;7873;52.230;12.856;2023-07-13T07:20:24;25.50;45.90
15543;DHT22;7873;52.230;12.856;2023-07-13T07:22:53;25.50;45.90
15543;DHT22;7873;52.230;12.856;2023-07-13T07:25:20;25.50;45.90
15543;DHT22;7873;52.230;12.856;2023-07-13T07:27:46;25.50;45.90
15543;DHT22;7873;52.230;12.856;2023-07-13T07:30:13;25.50;46.00
15543;DHT22;7873;52.230;12.856;2023-07-13T07:32:40;25.50;45.80
15543;DHT22;7873;52.230;12.856;2023-07-13T07:35:07;25.50;45.70
15543;DHT22;7873;52.230;12.856;2023-07-13T07:37:34;25.50;45.70
15543;DHT22;7873;52.230;12.856;2023-07-13T07:40:02;25.50;45.80
15543;DHT22;7873;52.230;12.856;2023-07-13T07:42:29;25.50;45.90
15543;DHT22;7873;52.230;12.856;2023-07-13T07:44:55;25.50;45.90
15543;DHT22;7873;52.230;12.856;2023-07-13T07:47:22;25.40;46.00
15543;DHT22;7873;52.230;12.856;2023-07-13T07:49:49;25.50;46.00
15543;DHT22;7873;52.230;12.856;2023-07-13T07:52:16;25.40;46.00
15543;DHT22;7873;52.230;12.856;2023-07-13T07:54:43;25.50;46.10
15543;DHT22;7873;52.230;12.856;2023-07-13T07:57:11;25.40;46.00
15543;DHT22;7873;52.230;12.856;2023-07-13T07:59:37;25.50;46.10
15543;DHT22;7873;52.230;12.856;2023-07-13T08:02:04;25.50;46.00
15543;DHT22;7873;52.230;12.856;2023-07-13T08:04:32;25.50;45.80
15543;DHT22;7873;52.230;12.856;2023-07-13T08:06:58;25.60;45.70
15543;DHT22;7873;52.230;12.856;2023-07-13T08:09:28;25.60;45.90
15543;DHT22;7873;52.230;12.856;2023-07-13T08:11:54;25.60;45.70
15543;DHT22;7873;52.230;12.856;2023-07-13T08:14:22;25.60;45.60
15543;DHT22;7873;52.230;12.856;2023-07-13T08:16:49;25.70;45.60
15543;DHT22;7873;52.230;12.856;2023-07-13T08:19:16;25.60;45.60
15543;DHT22;7873;52.230;12.856;2023-07-13T08:21:42;25.60;45.70
15543;DHT22;7873;52.230;12.856;2023-07-13T08:24:09;25.70;45.70
15543;DHT22;7873;52.230;12.856;2023-07-13T08:26:36;25.70;45.60
15543;DHT22;7873;52.230;12.856;2023-07-13T08:29:03;25.60;45.60
15543;DHT22;7873;52.230;12.856;2023-07-13T08:31:31;25.70;45.60
15543;DHT22;7873;52.230;12.856;2023-07-13T08:33:57;25.70;45.50
15543;DHT22;7873;52.230;12.856;2023-07-13T08:36:25;25.80;45.50
15543;DHT22;7873;52.230;12.856;2023-07-13T08:38:52;25.80;45.50
15543;DHT22;7873;52.230;12.856;2023-07-13T08:41:21;25.70;45.40
15543;DHT22;7873;52.230;12.856;2023-07-13T08:43:49;25.80;45.40
15543;DHT22;7873;52.230;12.856;2023-07-13T08:46:19;25.80;45.40
15543;DHT22;7873;52.230;12.856;2023-07-13T08:48:51;25.80;45.20
15543;DHT22;7873;52.230;12.856;2023-07-13T08:51:23;25.90;45.20
15543;DHT22;7873;52.230;12.856;2023-07-13T08:53:55;25.90;45.20
15543;DHT22;7873;52.230;12.856;2023-07-13T08:56:24;25.90;45.20
15543;DHT22;7873;52.230;12.856;2023-07-13T08:58:55;25.80;45.20
15543;DHT22;7873;52.230;12.856;2023-07-13T09:01:24;25.90;45.20
15543;DHT22;7873;52.230;12.856;2023-07-13T09:03:58;25.90;45.20
15543;DHT22;7873;52.230;12.856;2023-07-13T09:06:34;25.80;45.30
15543;DHT22;7873;52.230;12.856;2023-07-13T09:09:14;25.90;45.30
15543;DHT22;7873;52.230;12.856;2023-07-13T09:11:50;25.90;45.20
15543;DHT22;7873;52.230;12.856;2023-07-13T09:14:26;25.80;45.30
15543;DHT22;7873;52.230;12.856;2023-07-13T09:17:10;25.90;45.40
15543;DHT22;7873;52.230;12.856;2023-07-13T09:19:42;25.90;45.20
15543;DHT22;7873;52.230;12.856;2023-07-13T09:22:13;25.80;45.30
15543;DHT22;7873;52.230;12.856;2023-07-13T09:24:47;25.80;45.40
15543;DHT22;7873;52.230;12.856;2023-07-13T09:27:21;25.80;45.20
15543;DHT22;7873;52.230;12.856;2023-07-13T09:29:50;25.90;45.30
15543;DHT22;7873;52.230;12.856;2023-07-13T09:32:23;25.80;45.30
15543;DHT22;7873;52.230;12.856;2023-07-13T09:34:54;25.80;45.30
15543;DHT22;7873;52.230;12.856;2023-07-13T09:37:21;25.80;45.30
15543;DHT22;7873;52.230;12.856;2023-07-13T09:39:54;25.80;45.40
15543;DHT22;7873;52.230;12.856;2023-07-13T09:42:24;25.80;45.40
15543;DHT22;7873;52.230;12.856;2023-07-13T09:44:53;25.80;45.20
15543;DHT22;7873;52.230;12.856;2023-07-13T09:47:22;25.80;45.20
15543;DHT22;7873;52.230;12.856;2023-07-13T09:49:56;25.90;45.30
15543;DHT22;7873;52.230;12.856;2023-07-13T09:52:24;25.80;45.20
15543;DHT22;7873;52.230;12.856;2023-07-13T09:54:52;25.80;45.40
15543;DHT22;7873;52.230;12.856;2023-07-13T09:57:25;25.80;45.40
15543;DHT22;7873;52.230;12.856;2023-07-13T09:59:53;25.80;45.30
15543;DHT22;7873;52.230;12.856;2023-07-13T10:02:28;25.80;45.40
15543;DHT22;7873;52.230;12.856;2023-07-13T10:05:00;25.80;45.30
15543;DHT22;7873;52.230;12.856;2023-07-13T10:07:29;25.80;45.20
15543;DHT22;7873;52.230;12.856;2023-07-13T10:09:58;25.70;45.30
15543;DHT22;7873;52.230;12.856;2023-07-13T10:12:27;25.80;45.20
15543;DHT22;7873;52.230;12.856;2023-07-13T10:14:55;25.80;45.20
15543;DHT22;7873;52.230;12.856;2023-07-13T10:17:26;25.80;45.20
15543;DHT22;7873;52.230;12.856;2023-07-13T10:19:57;25.80;45.20
15543;DHT22;7873;52.230;12.856;2023-07-13T10:22:32;25.80;45.20
15543;DHT22;7873;52.230;12.856;2023-07-13T10:25:10;25.80;45.30
15543;DHT22;7873;52.230;12.856;2023-07-13T10:27:41;25.80;45.20
15543;DHT22;7873;52.230;12.856;2023-07-13T10:30:09;25.80;45.20
15543;DHT22;7873;52.230;12.856;2023-07-13T10:32:42;25.80;45.20
15543;DHT22;7873;52.230;12.856;2023-07-13T10:35:10;25.90;45.20
15543;DHT22;7873;52.230;12.856;2023-07-13T10:37:40;25.90;45.20
15543;DHT22;7873;52.230;12.856;2023-07-13T10:40:12;25.80;45.30
15543;DHT22;7873;52.230;12.856;2023-07-13T10:42:43;25.80;45.30
15543;DHT22;7873;52.230;12.856;2023-07-13T10:45:13;25.80;45.20
15543;DHT22;7873;52.230;12.856;2023-07-13T10:47:41;25.80;45.20
15543;DHT22;7873;52.230;12.856;2023-07-13T10:50:13;25.90;45.20
15543;DHT22;7873;52.230;12.856;2023-07-13T10:52:45;25.90;45.20
15543;DHT22;7873;52.230;12.856;2023-07-13T10:55:35;25.90;45.10
15543;DHT22;7873;52.230;12.856;2023-07-13T10:58:14;25.90;45.10
15543;DHT22;7873;52.230;12.856;2023-07-13T11:00:47;25.90;45.10
15543;DHT22;7873;52.230;12.856;2023-07-13T11:03:17;25.90;45.00
15543;DHT22;7873;52.230;12.856;2023-07-13T11:05:49;26.00;45.00
15543;DHT22;7873;52.230;12.856;2023-07-13T11:08:23;26.00;45.00
15543;DHT22;7873;52.230;12.856;2023-07-13T11:11:02;26.00;45.00
15543;DHT22;7873;52.230;12.856;2023-07-13T11:16:36;26.00;44.90
15543;DHT22;7873;52.230;12.856;2023-07-13T11:19:24;26.00;44.90
15543;DHT22;7873;52.230;12.856;2023-07-13T11:22:11;26.00;45.00
15543;DHT22;7873;52.230;12.856;2023-07-13T11:24:51;26.00;44.90
15543;DHT22;7873;52.230;12.856;2023-07-13T11:27:24;26.00;44.90
15543;DHT22;7873;52.230;12.856;2023-07-13T11:30:08;26.00;45.00
15543;DHT22;7873;52.230;12.856;2023-07-13T11:32:49;26.00;45.00
15543;DHT22;7873;52.230;12.856;2023-07-13T11:35:18;26.00;45.00
15543;DHT22;7873;52.230;12.856;2023-07-13T11:37:50;26.00;44.90
15543;DHT22;7873;52.230;12.856;2023-07-13T11:40:17;26.00;44.90
15543;DHT22;7873;52.230;12.856;2023-07-13T11:42:44;26.00;44.80
15543;DHT22;7873;52.230;12.856;2023-07-13T11:47:57;26.00;44.80
15543;DHT22;7873;52.230;12.856;2023-07-13T11:50:25;26.10;44.80
15543;DHT22;7873;52.230;12.856;2023-07-13T11:52:53;26.00;44.70
15543;DHT22;7873;52.230;12.856;2023-07-13T11:55:22;26.00;44.70
15543;DHT22;7873;52.230;12.856;2023-07-13T11:57:51;26.10;44.70
15543;DHT22;7873;52.230;12.856;2023-07-13T12:00:22;26.10;44.70
15543;DHT22;7873;52.230;12.856;2023-07-13T12:02:53;26.10;44.60
15543;DHT22;7873;52.230;12.856;2023-07-13T12:05:21;26.10;44.60
15543;DHT22;7873;52.230;12.856;2023-07-13T12:07:49;26.10;44.70
15543;DHT22;7873;52.230;12.856;2023-07-13T12:10:21;26.10;44.70
15543;DHT22;7873;52.230;12.856;2023-07-13T12:12:52;26.10;44.50
15543;DHT22;7873;52.230;12.856;2023-07-13T12:15:20;26.10;44.70
15543;DHT22;7873;52.230;12.856;2023-07-13T12:17:48;26.10;44.70
15543;DHT22;7873;52.230;12.856;2023-07-13T12:20:21;26.00;44.60
15543;DHT22;7873;52.230;12.856;2023-07-13T12:22:49;26.10;44.70
15543;DHT22;7873;52.230;12.856;2023-07-13T12:25:17;26.10;44.60
15543;DHT22;7873;52.230;12.856;2023-07-13T12:27:47;26.20;44.60
15543;DHT22;7873;52.230;12.856;2023-07-13T12:30:22;26.10;44.50
15543;DHT22;7873;52.230;12.856;2023-07-13T12:32:59;26.20;44.60
15543;DHT22;7873;52.230;12.856;2023-07-13T12:35:28;26.20;44.70
15543;DHT22;7873;52.230;12.856;2023-07-13T12:37:58;26.20;44.90
15543;DHT22;7873;52.230;12.856;2023-07-13T12:40:28;26.10;45.10
15543;DHT22;7873;52.230;12.856;2023-07-13T12:42:59;26.10;45.20
15543;DHT22;7873;52.230;12.856;2023-07-13T12:45:29;26.10;45.20
15543;DHT22;7873;52.230;12.856;2023-07-13T12:47:57;26.10;45.20
15543;DHT22;7873;52.230;12.856;2023-07-13T12:50:29;26.00;45.30
15543;DHT22;7873;52.230;12.856;2023-07-13T12:53:01;26.00;45.30
15543;DHT22;7873;52.230;12.856;2023-07-13T12:55:30;26.00;45.30
15543;DHT22;7873;52.230;12.856;2023-07-13T12:57:59;26.00;45.40
15543;DHT22;7873;52.230;12.856;2023-07-13T13:00:27;26.00;45.40
15543;DHT22;7873;52.230;12.856;2023-07-13T13:02:58;26.00;45.60
15543;DHT22;7873;52.230;12.856;2023-07-13T13:05:30;26.00;45.50
15543;DHT22;7873;52.230;12.856;2023-07-13T13:07:58;26.00;45.50
15543;DHT22;7873;52.230;12.856;2023-07-13T13:10:24;26.00;45.40
15543;DHT22;7873;52.230;12.856;2023-07-13T13:12:52;26.00;45.30
15543;DHT22;7873;52.230;12.856;2023-07-13T13:15:19;26.00;45.30
15543;DHT22;7873;52.230;12.856;2023-07-13T13:17:47;26.10;45.40
15543;DHT22;7873;52.230;12.856;2023-07-13T13:20:14;26.00;45.30
15543;DHT22;7873;52.230;12.856;2023-07-13T13:22:42;26.10;45.40
15543;DHT22;7873;52.230;12.856;2023-07-13T13:25:09;26.10;45.30
15543;DHT22;7873;52.230;12.856;2023-07-13T13:27:36;26.00;45.30
15543;DHT22;7873;52.230;12.856;2023-07-13T13:30:09;26.00;45.40
15543;DHT22;7873;52.230;12.856;2023-07-13T13:32:38;26.00;45.60
15543;DHT22;7873;52.230;12.856;2023-07-13T13:35:05;26.00;45.70
15543;DHT22;7873;52.230;12.856;2023-07-13T13:37:38;26.00;45.70
15543;DHT22;7873;52.230;12.856;2023-07-13T13:40:13;26.00;45.60
15543;DHT22;7873;52.230;12.856;2023-07-13T13:42:41;26.00;45.70
15543;DHT22;7873;52.230;12.856;2023-07-13T13:45:09;26.00;45.70
15543;DHT22;7873;52.230;12.856;2023-07-13T13:47:38;25.90;45.80
15543;DHT22;7873;52.230;12.856;2023-07-13T13:50:12;25.90;45.90
15543;DHT22;7873;52.230;12.856;2023-07-13T13:52:40;25.80;45.90
15543;DHT22;7873;52.230;12.856;2023-07-13T13:55:11;25.90;46.00
15543;DHT22;7873;52.230;12.856;2023-07-13T13:57:38;25.80;46.10
15543;DHT22;7873;52.230;12.856;2023-07-13T14:00:05;25.80;46.10
15543;DHT22;7873;52.230;12.856;2023-07-13T14:02:35;25.80;45.90
15543;DHT22;7873;52.230;12.856;2023-07-13T14:05:03;25.80;46.00
15543;DHT22;7873;52.230;12.856;2023-07-13T14:07:31;25.90;45.90
15543;DHT22;7873;52.230;12.856;2023-07-13T14:09:58;25.90;45.90
15543;DHT22;7873;52.230;12.856;2023-07-13T14:12:26;25.90;45.90
15543;DHT22;7873;52.230;12.856;2023-07-13T14:14:55;25.70;46.00
15543;DHT22;7873;52.230;12.856;2023-07-13T14:17:24;25.70;46.50
15543;DHT22;7873;52.230;12.856;2023-07-13T14:19:54;25.60;46.60
15543;DHT22;7873;52.230;12.856;2023-07-13T14:22:22;25.60;46.90
15543;DHT22;7873;52.230;12.856;2023-07-13T14:24:51;25.50;47.00
15543;DHT22;7873;52.230;12.856;2023-07-13T14:27:18;25.50;47.70
15543;DHT22;7873;52.230;12.856;2023-07-13T14:29:45;25.60;46.90
15543;DHT22;7873;52.230;12.856;2023-07-13T14:32:12;25.50;47.10
15543;DHT22;7873;52.230;12.856;2023-07-13T14:34:39;25.50;47.10
15543;DHT22;7873;52.230;12.856;2023-07-13T14:37:09;25.50;47.10
15543;DHT22;7873;52.230;12.856;2023-07-13T14:39:39;25.50;47.30
15543;DHT22;7873;52.230;12.856;2023-07-13T14:42:08;25.50;47.10
15543;DHT22;7873;52.230;12.856;2023-07-13T14:44:37;25.50;47.30
15543;DHT22;7873;52.230;12.856;2023-07-13T14:47:04;25.70;47.60
15543;DHT22;7873;52.230;12.856;2023-07-13T14:49:33;25.70;48.10
15543;DHT22;7873;52.230;12.856;2023-07-13T14:52:05;25.80;46.70
15543;DHT22;7873;52.230;12.856;2023-07-13T14:54:38;25.70;46.90
15543;DHT22;7873;52.230;12.856;2023-07-13T14:57:08;25.60;46.60
15543;DHT22;7873;52.230;12.856;2023-07-13T14:59:36;25.60;45.40
15543;DHT22;7873;52.230;12.856;2023-07-13T15:02:09;25.50;45.80
15543;DHT22;7873;52.230;12.856;2023-07-13T15:04:44;25.50;45.90
15543;DHT22;7873;52.230;12.856;2023-07-13T15:07:12;25.50;45.20
15543;DHT22;7873;52.230;12.856;2023-07-13T15:09:41;25.50;44.60
15543;DHT22;7873;52.230;12.856;2023-07-13T15:12:08;25.50;44.30
15543;DHT22;7873;52.230;12.856;2023-07-13T15:14:35;25.60;44.30
15543;DHT22;7873;52.230;12.856;2023-07-13T15:17:02;25.60;44.80
15543;DHT22;7873;52.230;12.856;2023-07-13T15:19:29;25.50;45.00
15543;DHT22;7873;52.230;12.856;2023-07-13T15:21:57;25.50;45.50
15543;DHT22;7873;52.230;12.856;2023-07-13T15:24:25;25.70;45.50
15543;DHT22;7873;52.230;12.856;2023-07-13T15:26:52;25.80;45.40
15543;DHT22;7873;52.230;12.856;2023-07-13T15:29:19;25.80;45.40
15543;DHT22;7873;52.230;12.856;2023-07-13T15:31:46;25.70;45.40
15543;DHT22;7873;52.230;12.856;2023-07-13T15:34:14;25.80;45.40
15543;DHT22;7873;52.230;12.856;2023-07-13T15:36:42;25.80;45.30
15543;DHT22;7873;52.230;12.856;2023-07-13T15:39:10;25.80;45.20
15543;DHT22;7873;52.230;12.856;2023-07-13T15:41:42;25.80;45.20
15543;DHT22;7873;52.230;12.856;2023-07-13T15:44:21;25.60;41.90